Terminal Aerodrome Forecast
Issued by NWS

Home | Current Version | Previous Version | Text Only | Print | Product List | Glossary On
Versions: 1 2 3 4 5 6 7 8 9 10 11 12 13 14 15 16 17 18 19 20 21 22 23 24 25 26 27 28
000
FTAK31 PANC 172106 AAA
TAFAAQ
TAF AMD
PAAQ 172106Z 1721/1818 07007KT P6SM SCT060 OVC120
     FM180000 14012KT 6SM -RA OVC060
     FM180500 09008KT P6SM -RA SCT030 OVC060=

USA.gov is the U.S. government's official web portal to all federal, state and local government web resources and services.